createdAt,value
2018-06-21T00:00:09.663Z,23.93
2018-06-21T00:01:14.543Z,23.90
2018-06-21T00:02:19.187Z,23.86
2018-06-21T00:03:23.386Z,23.85
2018-06-21T00:04:27.741Z,23.82
2018-06-21T00:05:32.228Z,23.79
2018-06-21T00:06:36.462Z,23.78
2018-06-21T00:07:40.766Z,23.75
2018-06-21T00:08:44.978Z,23.74
2018-06-21T00:09:49.400Z,23.69
2018-06-21T00:10:53.683Z,23.67
2018-06-21T00:11:58.052Z,23.65
2018-06-21T00:13:02.324Z,23.63
2018-06-21T00:14:06.555Z,23.60
2018-06-21T00:15:10.784Z,23.58
2018-06-21T00:16:15.197Z,23.57
2018-06-21T00:17:19.387Z,23.54
2018-06-21T00:18:23.810Z,23.52
2018-06-21T00:19:28.271Z,23.50
2018-06-21T00:20:32.784Z,23.48
2018-06-21T00:22:40.251Z,23.44
2018-06-21T00:23:44.516Z,23.43
2018-06-21T00:24:48.710Z,23.41
2018-06-21T00:25:53.091Z,23.41
2018-06-21T00:26:57.837Z,23.39
2018-06-21T00:28:02.212Z,23.38
2018-06-21T00:29:06.621Z,23.35
2018-06-21T00:30:11.159Z,23.32
2018-06-21T00:31:15.725Z,23.31
2018-06-21T00:32:19.942Z,23.29
2018-06-21T00:33:24.506Z,23.28
2018-06-21T00:34:29.167Z,23.27
2018-06-21T00:35:33.542Z,23.26
2018-06-21T00:36:38.036Z,23.24
2018-06-21T00:37:42.339Z,23.22
2018-06-21T00:38:46.638Z,23.20
2018-06-21T00:39:50.900Z,23.20
2018-06-21T00:40:55.161Z,23.19
2018-06-21T00:41:59.715Z,23.17
2018-06-21T00:43:04.214Z,23.15
2018-06-21T00:44:08.554Z,23.15
2018-06-21T00:45:13.074Z,23.14
2018-06-21T00:46:17.619Z,23.12
2018-06-21T00:47:22.060Z,23.11
2018-06-21T00:48:26.361Z,23.09
2018-06-21T00:49:30.544Z,23.10
2018-06-21T00:50:34.858Z,23.08
2018-06-21T00:51:39.163Z,23.08
2018-06-21T00:52:43.642Z,23.06
2018-06-21T00:53:47.914Z,23.04
2018-06-21T00:54:52.098Z,23.04
2018-06-21T00:56:17.935Z,23.02
2018-06-21T00:57:22.364Z,22.98
2018-06-21T00:58:26.526Z,22.96
2018-06-21T00:59:30.989Z,22.96
2018-06-21T01:00:36.194Z,22.95
2018-06-21T01:01:40.527Z,22.94
2018-06-21T01:02:45.349Z,22.92
2018-06-21T01:03:49.734Z,22.91
2018-06-21T01:04:53.988Z,22.90
2018-06-21T01:05:58.129Z,22.90
2018-06-21T01:07:02.439Z,22.87
2018-06-21T01:08:06.734Z,22.87
2018-06-21T01:09:10.952Z,22.86
2018-06-21T01:10:15.385Z,22.85
2018-06-21T01:11:20.082Z,22.83
2018-06-21T01:12:24.798Z,22.82
2018-06-21T01:13:29.102Z,22.81
2018-06-21T01:14:33.754Z,22.80
2018-06-21T01:15:38.367Z,22.78
2018-06-21T01:16:42.905Z,22.77
2018-06-21T01:17:47.290Z,22.75
2018-06-21T01:18:51.667Z,22.73
2018-06-21T01:19:55.860Z,22.72
2018-06-21T01:21:00.190Z,22.71
2018-06-21T01:22:04.417Z,22.69
2018-06-21T01:23:08.794Z,22.68
2018-06-21T01:24:13.032Z,22.67
2018-06-21T01:25:17.422Z,22.65
2018-06-21T01:26:21.957Z,22.64
2018-06-21T01:27:26.179Z,22.63
2018-06-21T01:28:30.407Z,22.61
2018-06-21T01:29:34.705Z,22.60
2018-06-21T01:30:39.218Z,22.59
2018-06-21T01:31:43.599Z,22.57
2018-06-21T01:32:48.010Z,22.56
2018-06-21T01:33:52.404Z,22.55
2018-06-21T01:34:56.994Z,22.52
2018-06-21T01:36:01.329Z,22.52
2018-06-21T01:37:05.883Z,22.50
2018-06-21T01:38:10.110Z,22.49
2018-06-21T01:39:14.555Z,22.47
2018-06-21T01:40:18.820Z,22.45
2018-06-21T01:41:23.099Z,22.45
2018-06-21T01:42:27.354Z,22.44
2018-06-21T01:43:31.777Z,22.41
2018-06-21T01:44:36.238Z,22.40
2018-06-21T01:45:40.580Z,22.38
2018-06-21T01:46:44.971Z,22.37
2018-06-21T01:47:49.256Z,22.36
2018-06-21T01:48:53.436Z,22.33
2018-06-21T01:49:57.692Z,22.32
2018-06-21T01:51:02.023Z,22.31
2018-06-21T01:52:06.760Z,22.30
2018-06-21T01:53:11.114Z,22.29
2018-06-21T01:54:15.342Z,22.28
2018-06-21T01:55:19.786Z,22.27
2018-06-21T01:56:24.418Z,22.26
2018-06-21T01:57:28.619Z,22.25
2018-06-21T01:58:32.771Z,22.24
2018-06-21T01:59:37.016Z,22.24
2018-06-21T02:00:41.337Z,22.22
2018-06-21T02:01:45.778Z,22.21
2018-06-21T02:02:50.738Z,22.20
2018-06-21T02:03:55.202Z,22.18
2018-06-21T02:04:59.434Z,22.16
2018-06-21T02:06:03.780Z,22.16
2018-06-21T02:07:08.555Z,22.14
2018-06-21T02:08:12.897Z,22.14
2018-06-21T02:09:17.102Z,22.13
2018-06-21T02:10:21.335Z,22.11
2018-06-21T02:11:25.733Z,22.11
2018-06-21T02:12:30.255Z,22.10
2018-06-21T02:13:34.531Z,22.09
2018-06-21T02:14:38.798Z,22.08
2018-06-21T02:15:43.141Z,22.07
2018-06-21T02:16:47.387Z,22.07
2018-06-21T02:17:51.616Z,22.05
2018-06-21T02:18:55.887Z,22.05
2018-06-21T02:20:00.111Z,22.05
2018-06-21T02:21:04.730Z,22.03
2018-06-21T02:22:09.203Z,22.02
2018-06-21T02:23:13.440Z,22.02
2018-06-21T02:24:17.810Z,22.01
2018-06-21T02:25:22.016Z,22.00
2018-06-21T02:26:26.291Z,22.00
2018-06-21T02:27:30.711Z,21.99
2018-06-21T02:28:34.899Z,21.99
2018-06-21T02:29:39.336Z,21.98
2018-06-21T02:30:43.730Z,21.96
2018-06-21T02:31:48.042Z,21.96
2018-06-21T02:32:52.289Z,21.96
2018-06-21T02:33:56.720Z,21.95
2018-06-21T02:35:00.927Z,21.94
2018-06-21T02:36:05.192Z,21.93
2018-06-21T02:37:09.381Z,21.94
2018-06-21T02:38:13.692Z,21.94
2018-06-21T02:39:18.285Z,21.92
2018-06-21T02:40:23.822Z,21.90
2018-06-21T02:41:28.093Z,21.91
2018-06-21T02:42:32.367Z,21.88
2018-06-21T02:43:36.633Z,21.89
2018-06-21T02:44:40.939Z,21.88
2018-06-21T02:45:45.181Z,21.87
2018-06-21T02:46:49.415Z,21.86
2018-06-21T02:47:53.620Z,21.86
2018-06-21T02:48:57.860Z,21.83
2018-06-21T02:50:02.464Z,21.82
2018-06-21T02:51:07.185Z,21.82
2018-06-21T02:52:11.558Z,21.81
2018-06-21T02:53:15.838Z,21.81
2018-06-21T02:54:20.388Z,21.80
2018-06-21T02:55:24.728Z,21.79
2018-06-21T02:56:29.354Z,21.78
2018-06-21T02:57:33.756Z,21.77
2018-06-21T02:58:38.196Z,21.76
2018-06-21T02:59:42.504Z,21.75
2018-06-21T03:00:46.786Z,21.75
2018-06-21T03:01:51.295Z,21.73
2018-06-21T03:02:56.247Z,21.73
2018-06-21T03:04:00.825Z,21.71
2018-06-21T03:05:05.030Z,21.70
2018-06-21T03:06:09.314Z,21.69
2018-06-21T03:07:13.863Z,21.68
2018-06-21T03:08:18.527Z,21.67
2018-06-21T03:09:22.775Z,21.67
2018-06-21T03:10:27.144Z,21.65
2018-06-21T03:11:31.507Z,21.63
2018-06-21T03:12:36.348Z,21.63
2018-06-21T03:13:40.796Z,21.61
2018-06-21T03:14:45.053Z,21.60
2018-06-21T03:15:49.388Z,21.60
2018-06-21T03:16:53.682Z,21.59
2018-06-21T03:17:57.925Z,21.58
2018-06-21T03:19:02.078Z,21.56
2018-06-21T03:20:06.446Z,21.56
2018-06-21T03:21:10.791Z,21.55
2018-06-21T03:22:15.071Z,21.54
2018-06-21T03:23:19.357Z,21.53
2018-06-21T03:24:23.598Z,21.52
2018-06-21T03:25:27.891Z,21.50
2018-06-21T03:26:32.181Z,21.48
2018-06-21T03:27:36.439Z,21.47
2018-06-21T03:28:40.735Z,21.45
2018-06-21T03:29:44.975Z,21.45
2018-06-21T03:30:49.351Z,21.45
2018-06-21T03:31:53.707Z,21.43
2018-06-21T03:32:57.960Z,21.43
2018-06-21T03:34:02.247Z,21.43
2018-06-21T03:35:06.521Z,21.43
2018-06-21T03:36:10.790Z,21.41
2018-06-21T03:37:15.140Z,21.42
2018-06-21T03:38:19.577Z,21.41
2018-06-21T03:39:23.980Z,21.41
2018-06-21T03:40:28.331Z,21.38
2018-06-21T03:41:32.798Z,21.40
2018-06-21T03:42:37.070Z,21.39
2018-06-21T03:43:41.540Z,21.40
2018-06-21T03:44:45.967Z,21.39
2018-06-21T03:45:50.547Z,21.39
2018-06-21T03:46:54.840Z,21.39
2018-06-21T03:47:59.126Z,21.39
2018-06-21T03:49:03.398Z,21.40
2018-06-21T03:50:07.690Z,21.40
2018-06-21T03:51:12.013Z,21.41
2018-06-21T03:52:16.458Z,21.41
2018-06-21T03:53:20.947Z,21.40
2018-06-21T03:54:25.369Z,21.41
2018-06-21T03:55:29.638Z,21.40
2018-06-21T03:56:34.163Z,21.42
2018-06-21T03:57:38.660Z,21.40
2018-06-21T03:58:42.979Z,21.40
2018-06-21T03:59:47.315Z,21.41
2018-06-21T04:00:51.849Z,21.42
2018-06-21T04:01:56.715Z,21.41
2018-06-21T04:03:01.051Z,21.41
2018-06-21T04:04:05.261Z,21.41
2018-06-21T04:05:09.447Z,21.42
2018-06-21T04:06:13.747Z,21.43
2018-06-21T04:07:18.054Z,21.44
2018-06-21T04:08:22.353Z,21.45
2018-06-21T04:09:27.154Z,21.46
2018-06-21T04:10:31.335Z,21.48
2018-06-21T04:11:35.561Z,21.48
2018-06-21T04:12:40.011Z,21.50
2018-06-21T04:13:44.231Z,21.51
2018-06-21T04:14:48.463Z,21.52
2018-06-21T04:15:52.723Z,21.53
2018-06-21T04:16:57.114Z,21.53
2018-06-21T04:18:01.417Z,21.54
2018-06-21T04:19:05.739Z,21.54
2018-06-21T04:20:10.315Z,21.54
2018-06-21T04:21:14.538Z,21.55
2018-06-21T04:22:18.870Z,21.56
2018-06-21T04:23:23.096Z,21.57
2018-06-21T04:24:27.477Z,21.58
2018-06-21T04:25:31.902Z,21.59
2018-06-21T04:26:36.338Z,21.62
2018-06-21T04:27:40.652Z,21.63
2018-06-21T04:28:44.999Z,21.65
2018-06-21T04:29:49.263Z,21.66
2018-06-21T04:30:53.567Z,21.68
2018-06-21T04:31:57.816Z,21.71
2018-06-21T04:33:02.904Z,21.73
2018-06-21T04:34:07.190Z,21.76
2018-06-21T04:35:11.354Z,21.77
2018-06-21T04:36:15.618Z,21.79
2018-06-21T04:37:20.091Z,21.81
2018-06-21T04:38:24.664Z,21.85
2018-06-21T04:39:29.018Z,21.86
2018-06-21T04:40:33.228Z,21.89
2018-06-21T04:41:37.602Z,21.89
2018-06-21T04:42:41.872Z,21.91
2018-06-21T04:43:46.221Z,21.93
2018-06-21T04:44:50.499Z,21.93
2018-06-21T04:45:54.795Z,21.94
2018-06-21T04:46:58.988Z,21.95
2018-06-21T04:48:03.184Z,21.97
2018-06-21T04:49:07.323Z,21.97
2018-06-21T04:50:11.748Z,21.97
2018-06-21T04:51:16.191Z,21.98
2018-06-21T04:52:20.427Z,21.97
2018-06-21T04:53:24.659Z,21.98
2018-06-21T04:54:28.901Z,21.97
2018-06-21T04:55:33.464Z,21.96
2018-06-21T04:56:37.720Z,21.95
2018-06-21T04:57:41.948Z,21.94
2018-06-21T04:58:46.172Z,21.94
2018-06-21T04:59:50.449Z,21.93
2018-06-21T05:00:54.803Z,21.92
2018-06-21T05:01:59.018Z,21.90
2018-06-21T05:03:03.822Z,21.89
2018-06-21T05:04:08.023Z,21.87
2018-06-21T05:05:12.300Z,21.87
2018-06-21T05:06:16.511Z,21.86
2018-06-21T05:07:20.942Z,21.85
2018-06-21T05:08:25.139Z,21.84
2018-06-21T05:09:29.479Z,21.83
2018-06-21T05:10:33.704Z,21.80
2018-06-21T05:11:38.045Z,21.78
2018-06-21T05:12:42.258Z,21.77
2018-06-21T05:13:46.650Z,21.76
2018-06-21T05:14:52.393Z,21.75
2018-06-21T05:15:57.055Z,21.73
2018-06-21T05:17:01.520Z,21.73
2018-06-21T05:18:05.852Z,21.74
2018-06-21T05:19:10.306Z,21.74
2018-06-21T05:20:14.560Z,21.74
2018-06-21T05:21:18.772Z,21.74
2018-06-21T05:22:22.986Z,21.74
2018-06-21T05:23:27.397Z,21.74
2018-06-21T05:24:31.792Z,21.74
2018-06-21T05:25:35.959Z,21.73
2018-06-21T05:26:40.371Z,21.74
2018-06-21T05:27:44.604Z,21.72
2018-06-21T05:28:48.815Z,21.71
2018-06-21T05:29:53.273Z,21.69
2018-06-21T05:30:57.546Z,21.68
2018-06-21T05:32:01.885Z,21.67
2018-06-21T05:33:06.054Z,21.67
2018-06-21T05:34:10.323Z,21.66
2018-06-21T05:35:14.914Z,21.65
2018-06-21T05:36:19.162Z,21.64
2018-06-21T05:37:23.451Z,21.65
2018-06-21T05:38:27.834Z,21.64
2018-06-21T05:39:32.114Z,21.63
2018-06-21T05:40:37.628Z,21.62
2018-06-21T05:41:41.947Z,21.61
2018-06-21T05:42:46.229Z,21.60
2018-06-21T05:43:50.459Z,21.59
2018-06-21T05:44:54.810Z,21.59
2018-06-21T05:45:59.091Z,21.58
2018-06-21T05:47:03.350Z,21.58
2018-06-21T05:48:07.696Z,21.57
2018-06-21T05:49:11.955Z,21.57
2018-06-21T05:50:16.332Z,21.55
2018-06-21T05:51:20.555Z,21.55
2018-06-21T05:52:25.097Z,21.52
2018-06-21T05:53:29.295Z,21.51
2018-06-21T05:54:33.751Z,21.49
2018-06-21T05:55:38.266Z,21.48
2018-06-21T05:56:43.391Z,21.47
2018-06-21T05:57:47.524Z,21.45
2018-06-21T05:58:51.876Z,21.42
2018-06-21T05:59:56.087Z,21.41
2018-06-21T06:01:00.598Z,21.38
2018-06-21T06:02:04.940Z,21.35
2018-06-21T06:03:09.554Z,21.32
2018-06-21T06:04:13.802Z,21.28
2018-06-21T06:05:18.087Z,21.27
2018-06-21T06:06:22.385Z,21.26
2018-06-21T06:07:26.859Z,21.24
2018-06-21T06:08:31.180Z,21.24
2018-06-21T06:09:35.358Z,21.25
2018-06-21T06:10:39.875Z,21.25
2018-06-21T06:11:44.442Z,21.25
2018-06-21T06:12:48.656Z,21.24
2018-06-21T06:13:52.957Z,21.24
2018-06-21T06:14:58.334Z,21.22
2018-06-21T06:16:02.683Z,21.21
2018-06-21T06:17:06.866Z,21.19
2018-06-21T06:18:11.070Z,21.17
2018-06-21T06:19:15.278Z,21.18
2018-06-21T06:20:19.823Z,21.17
2018-06-21T06:21:24.337Z,21.19
2018-06-21T06:22:28.586Z,21.17
2018-06-21T06:23:32.851Z,21.18
2018-06-21T06:24:37.094Z,21.20
2018-06-21T06:25:41.222Z,21.20
2018-06-21T06:26:45.418Z,21.21
2018-06-21T06:27:49.754Z,21.21
2018-06-21T06:28:54.242Z,21.23
2018-06-21T06:29:58.374Z,21.24
2018-06-21T06:31:02.837Z,21.23
2018-06-21T06:32:07.218Z,21.24
2018-06-21T06:33:11.402Z,21.24
2018-06-21T06:34:15.636Z,21.27
2018-06-21T06:35:19.954Z,21.28
2018-06-21T06:36:24.275Z,21.31
2018-06-21T06:37:28.681Z,21.32
2018-06-21T06:38:32.911Z,21.34
2018-06-21T06:39:37.281Z,21.35
2018-06-21T06:40:41.408Z,21.39
2018-06-21T06:41:47.065Z,21.40
2018-06-21T06:42:51.249Z,21.43
2018-06-21T06:43:55.503Z,21.45
2018-06-21T06:44:59.805Z,21.47
2018-06-21T06:46:04.080Z,21.51
2018-06-21T06:47:08.377Z,21.54
2018-06-21T06:48:17.285Z,21.58
2018-06-21T06:49:24.875Z,21.60
2018-06-21T06:50:35.589Z,21.64
2018-06-21T06:51:42.510Z,21.64
2018-06-21T06:52:50.799Z,21.65
2018-06-21T06:53:57.456Z,21.66
2018-06-21T06:55:03.579Z,21.65
2018-06-21T06:56:08.429Z,21.66
2018-06-21T06:57:13.104Z,21.68
2018-06-21T06:58:17.523Z,21.70
2018-06-21T06:59:22.021Z,21.71
2018-06-21T07:00:26.388Z,21.72
2018-06-21T07:01:30.965Z,21.73
2018-06-21T07:02:35.283Z,21.73
2018-06-21T07:03:39.839Z,21.73
2018-06-21T07:04:44.130Z,21.74
2018-06-21T07:05:48.453Z,21.75
2018-06-21T07:06:53.345Z,21.77
2018-06-21T07:07:57.929Z,21.77
2018-06-21T07:09:02.386Z,21.77
2018-06-21T07:10:06.714Z,21.77
2018-06-21T07:11:10.974Z,21.78
2018-06-21T07:12:15.323Z,21.80
2018-06-21T07:13:19.598Z,21.83
2018-06-21T07:14:23.862Z,21.86
2018-06-21T07:15:28.127Z,21.88
2018-06-21T07:16:32.372Z,21.91
2018-06-21T07:17:36.796Z,21.94
2018-06-21T07:18:41.657Z,21.95
2018-06-21T07:19:46.023Z,21.97
2018-06-21T07:20:50.370Z,21.99
2018-06-21T07:21:54.702Z,22.01
2018-06-21T07:22:58.908Z,22.05
2018-06-21T07:24:03.375Z,22.07
2018-06-21T07:25:07.819Z,22.09
2018-06-21T07:26:12.179Z,22.14
2018-06-21T07:27:16.356Z,22.18
2018-06-21T07:28:20.629Z,22.21
2018-06-21T07:29:25.113Z,22.24
2018-06-21T07:30:29.807Z,22.25
2018-06-21T07:31:35.466Z,22.28
2018-06-21T07:32:39.806Z,22.30
2018-06-21T07:33:44.659Z,22.31
2018-06-21T07:34:48.835Z,22.30
2018-06-21T07:35:53.115Z,22.29
2018-06-21T07:36:57.487Z,22.26
2018-06-21T07:38:02.384Z,22.24
2018-06-21T07:39:08.885Z,22.21
2018-06-21T07:40:13.291Z,22.20
2018-06-21T07:41:17.912Z,22.18
2018-06-21T07:42:22.159Z,22.15
2018-06-21T07:43:26.468Z,22.10
2018-06-21T07:44:30.677Z,22.06
2018-06-21T07:45:34.970Z,21.94
2018-06-21T07:46:39.255Z,21.75
2018-06-21T07:47:43.720Z,21.63
2018-06-21T07:48:47.924Z,21.53
2018-06-21T07:49:52.167Z,21.46
2018-06-21T07:50:56.628Z,21.42
2018-06-21T07:52:01.421Z,21.41
2018-06-21T07:53:05.819Z,21.41
2018-06-21T07:54:10.064Z,21.41
2018-06-21T07:55:14.355Z,21.37
2018-06-21T07:56:19.017Z,21.39
2018-06-21T07:57:23.288Z,21.39
2018-06-21T07:58:27.522Z,21.44
2018-06-21T07:59:31.715Z,21.49
2018-06-21T08:00:36.404Z,21.52
2018-06-21T08:01:40.634Z,21.55
2018-06-21T08:02:44.858Z,21.56
2018-06-21T08:03:49.551Z,21.58
2018-06-21T08:04:53.826Z,21.60
2018-06-21T08:05:58.134Z,21.61
2018-06-21T08:07:02.621Z,21.63
2018-06-21T08:08:07.010Z,21.61
2018-06-21T08:09:12.644Z,21.60
2018-06-21T08:10:17.234Z,21.58
2018-06-21T08:11:21.485Z,21.60
2018-06-21T08:12:25.698Z,21.63
2018-06-21T08:13:29.932Z,21.63
2018-06-21T08:14:34.180Z,21.67
2018-06-21T08:15:38.513Z,21.71
2018-06-21T08:16:44.950Z,21.75
2018-06-21T08:17:49.349Z,21.76
2018-06-21T08:18:53.608Z,21.75
2018-06-21T08:19:57.895Z,21.73
2018-06-21T08:21:02.161Z,21.74
2018-06-21T08:22:06.828Z,21.76
2018-06-21T08:23:11.154Z,21.77
2018-06-21T08:24:15.363Z,21.76
2018-06-21T08:25:19.630Z,21.76
2018-06-21T08:26:24.015Z,21.77
2018-06-21T08:27:28.204Z,21.77
2018-06-21T08:28:32.597Z,21.77
2018-06-21T08:29:36.842Z,21.77
2018-06-21T08:30:41.248Z,21.78
2018-06-21T08:31:45.939Z,21.81
2018-06-21T08:32:50.142Z,21.84
2018-06-21T08:33:54.557Z,21.87
2018-06-21T08:34:59.101Z,21.92
2018-06-21T08:36:03.804Z,21.96
2018-06-21T08:37:08.370Z,21.98
2018-06-21T08:38:13.081Z,22.01
2018-06-21T08:39:17.538Z,22.04
2018-06-21T08:40:21.867Z,22.05
2018-06-21T08:41:26.735Z,22.06
2018-06-21T08:42:30.996Z,22.09
2018-06-21T08:43:35.461Z,22.07
2018-06-21T08:44:39.656Z,22.06
2018-06-21T08:45:44.049Z,22.07
2018-06-21T08:46:48.471Z,22.06
2018-06-21T08:47:52.696Z,22.07
2018-06-21T08:48:56.907Z,22.06
2018-06-21T08:50:01.158Z,22.05
2018-06-21T08:51:05.553Z,22.02
2018-06-21T08:52:09.764Z,22.00
2018-06-21T08:53:14.199Z,22.03
2018-06-21T08:54:18.440Z,22.05
2018-06-21T08:55:22.802Z,22.09
2018-06-21T08:56:27.361Z,22.13
2018-06-21T08:57:32.054Z,22.18
2018-06-21T08:58:36.249Z,22.19
2018-06-21T08:59:40.454Z,22.21
2018-06-21T09:00:44.841Z,22.19
2018-06-21T09:01:49.073Z,22.17
2018-06-21T09:02:53.489Z,22.14
2018-06-21T09:03:58.336Z,22.09
2018-06-21T09:05:02.900Z,22.04
2018-06-21T09:06:07.163Z,22.00
2018-06-21T09:07:11.540Z,21.94
2018-06-21T09:08:15.798Z,21.89
2018-06-21T09:09:20.279Z,21.87
2018-06-21T09:10:24.558Z,21.78
2018-06-21T09:11:28.825Z,21.72
2018-06-21T09:12:36.552Z,21.68
2018-06-21T09:13:40.801Z,21.62
2018-06-21T09:14:45.294Z,21.60
2018-06-21T09:15:49.682Z,21.57
2018-06-21T09:16:53.904Z,21.56
2018-06-21T09:17:58.164Z,21.56
2018-06-21T09:19:02.538Z,21.63
2018-06-21T09:20:06.805Z,21.69
2018-06-21T09:21:11.101Z,21.77
2018-06-21T09:22:15.241Z,21.85
2018-06-21T09:23:19.623Z,21.86
2018-06-21T09:24:23.992Z,21.87
2018-06-21T09:25:28.359Z,21.86
2018-06-21T09:26:32.838Z,21.82
2018-06-21T09:27:37.188Z,21.79
2018-06-21T09:28:41.461Z,21.77
2018-06-21T09:29:45.688Z,21.76
2018-06-21T09:30:50.175Z,21.74
2018-06-21T09:31:54.372Z,21.72
2018-06-21T09:32:58.579Z,21.68
2018-06-21T09:34:02.759Z,21.63
2018-06-21T09:35:07.051Z,21.60
2018-06-21T09:36:11.276Z,21.60
2018-06-21T09:37:15.582Z,21.61
2018-06-21T09:38:25.093Z,21.67
2018-06-21T09:39:34.840Z,21.72
2018-06-21T09:40:44.282Z,21.73
2018-06-21T09:41:53.821Z,21.73
2018-06-21T09:43:03.294Z,21.70
2018-06-21T09:44:12.755Z,21.69
2018-06-21T09:45:22.047Z,21.72
2018-06-21T09:46:34.490Z,21.72
2018-06-21T09:47:41.650Z,21.73
2018-06-21T09:48:51.136Z,21.73
2018-06-21T09:49:55.507Z,21.71
2018-06-21T09:51:00.455Z,21.69
2018-06-21T09:52:05.666Z,21.66
2018-06-21T09:53:10.000Z,21.62
2018-06-21T09:54:14.463Z,21.59
2018-06-21T09:55:19.038Z,21.58
2018-06-21T09:56:23.183Z,21.62
2018-06-21T09:57:27.486Z,21.69
2018-06-21T09:58:32.883Z,21.76
2018-06-21T09:59:37.380Z,21.80
2018-06-21T10:00:46.951Z,21.83
2018-06-21T10:01:51.159Z,21.81
2018-06-21T10:02:55.528Z,21.78
2018-06-21T10:03:59.875Z,21.73
2018-06-21T10:05:04.363Z,21.68
2018-06-21T10:06:08.567Z,21.59
2018-06-21T10:07:12.819Z,21.52
2018-06-21T10:08:17.023Z,21.48
2018-06-21T10:09:21.210Z,21.48
2018-06-21T10:10:25.376Z,21.51
2018-06-21T10:11:29.713Z,21.56
2018-06-21T10:12:34.246Z,21.60
2018-06-21T10:13:38.493Z,21.65
2018-06-21T10:14:42.814Z,21.67
2018-06-21T10:15:47.105Z,21.70
2018-06-21T10:16:51.727Z,21.71
2018-06-21T10:17:59.004Z,21.71
2018-06-21T10:19:03.416Z,21.70
2018-06-21T10:20:07.674Z,21.72
2018-06-21T10:21:12.227Z,21.72
2018-06-21T10:22:16.490Z,21.73
2018-06-21T10:23:21.001Z,21.72
2018-06-21T10:24:25.623Z,21.73
2018-06-21T10:25:29.946Z,21.70
2018-06-21T10:26:34.404Z,21.66
2018-06-21T10:27:38.608Z,21.62
2018-06-21T10:28:42.954Z,21.59
2018-06-21T10:29:47.131Z,21.56
2018-06-21T10:30:51.347Z,21.53
2018-06-21T10:31:55.606Z,21.50
2018-06-21T10:32:59.844Z,21.49
2018-06-21T10:34:04.191Z,21.49
2018-06-21T10:35:08.868Z,21.47
2018-06-21T10:36:13.044Z,21.45
2018-06-21T10:37:17.267Z,21.41
2018-06-21T10:38:21.539Z,21.41
2018-06-21T10:39:25.924Z,21.42
2018-06-21T10:40:30.110Z,21.47
2018-06-21T10:41:34.324Z,21.50
2018-06-21T10:42:38.591Z,21.55
2018-06-21T10:43:43.033Z,21.55
2018-06-21T10:44:47.198Z,21.54
2018-06-21T10:45:51.505Z,21.49
2018-06-21T10:46:55.873Z,21.45
2018-06-21T10:48:00.072Z,21.41
2018-06-21T10:49:04.293Z,21.41
2018-06-21T10:50:08.483Z,21.39
2018-06-21T10:51:12.680Z,21.40
2018-06-21T10:52:17.025Z,21.42
2018-06-21T10:53:21.275Z,21.44
2018-06-21T10:54:25.773Z,21.47
2018-06-21T10:55:30.358Z,21.47
2018-06-21T10:56:34.592Z,21.48
2018-06-21T10:57:38.812Z,21.47
2018-06-21T10:58:43.191Z,21.45
2018-06-21T10:59:47.431Z,21.39
2018-06-21T11:00:51.658Z,21.37
2018-06-21T11:01:56.200Z,21.38
2018-06-21T11:03:00.422Z,21.42
2018-06-21T11:04:04.998Z,21.44
2018-06-21T11:05:09.355Z,21.45
2018-06-21T11:06:13.683Z,21.43
2018-06-21T11:07:17.850Z,21.41
2018-06-21T11:08:22.199Z,21.40
2018-06-21T11:09:26.507Z,21.39
2018-06-21T11:10:30.766Z,21.42
2018-06-21T11:11:35.032Z,21.44
2018-06-21T11:12:39.287Z,21.48
2018-06-21T11:13:43.562Z,21.54
2018-06-21T11:14:48.097Z,21.59
2018-06-21T11:15:52.322Z,21.61
2018-06-21T11:16:56.885Z,21.65
2018-06-21T11:18:01.203Z,21.69
2018-06-21T11:19:05.482Z,21.67
2018-06-21T11:20:09.690Z,21.67
2018-06-21T11:21:13.876Z,21.65
2018-06-21T11:22:18.079Z,21.60
2018-06-21T11:23:22.253Z,21.55
2018-06-21T11:24:26.482Z,21.54
2018-06-21T11:25:30.821Z,21.57
2018-06-21T11:26:35.410Z,21.61
2018-06-21T11:27:39.715Z,21.63
2018-06-21T11:28:44.035Z,21.66
2018-06-21T11:29:48.331Z,21.69
2018-06-21T11:30:52.497Z,21.71
2018-06-21T11:31:56.966Z,21.69
2018-06-21T11:33:01.206Z,21.71
2018-06-21T11:34:05.533Z,21.75
2018-06-21T11:35:09.832Z,21.77
2018-06-21T11:36:14.098Z,21.77
2018-06-21T11:37:18.311Z,21.75
2018-06-21T11:38:22.587Z,21.73
2018-06-21T11:39:27.099Z,21.71
2018-06-21T11:40:31.486Z,21.69
2018-06-21T11:41:35.663Z,21.70
2018-06-21T11:42:39.871Z,21.71
2018-06-21T11:43:44.090Z,21.74
2018-06-21T11:44:48.256Z,21.75
2018-06-21T11:45:52.511Z,21.73
2018-06-21T11:46:56.740Z,21.71
2018-06-21T11:48:01.337Z,21.71
2018-06-21T11:49:05.933Z,21.67
2018-06-21T11:50:10.209Z,21.67
2018-06-21T11:51:14.531Z,21.64
2018-06-21T11:52:18.845Z,21.64
2018-06-21T11:53:22.997Z,21.66
2018-06-21T11:54:27.521Z,21.69
2018-06-21T11:55:31.828Z,21.70
2018-06-21T11:56:36.135Z,21.73
2018-06-21T11:57:40.433Z,21.79
2018-06-21T11:58:44.830Z,21.86
2018-06-21T11:59:49.007Z,21.92
2018-06-21T12:00:53.447Z,21.99
2018-06-21T12:01:57.712Z,22.06
2018-06-21T12:03:01.957Z,22.10
2018-06-21T12:04:06.422Z,22.11
2018-06-21T12:05:10.544Z,22.10
2018-06-21T12:06:14.780Z,22.08
2018-06-21T12:07:19.069Z,22.06
2018-06-21T12:08:23.307Z,22.04
2018-06-21T12:09:27.465Z,22.01
2018-06-21T12:10:31.872Z,22.03
2018-06-21T12:11:36.289Z,22.05
2018-06-21T12:12:40.586Z,22.05
2018-06-21T12:13:44.755Z,22.05
2018-06-21T12:14:48.982Z,22.03
2018-06-21T12:15:53.220Z,21.98
2018-06-21T12:16:57.408Z,21.90
2018-06-21T12:18:01.636Z,21.79
2018-06-21T12:19:05.994Z,21.69
2018-06-21T12:20:10.250Z,21.62
2018-06-21T12:21:14.574Z,21.58
2018-06-21T12:22:18.839Z,21.56
2018-06-21T12:23:23.171Z,21.57
2018-06-21T12:24:28.027Z,21.60
2018-06-21T12:25:33.276Z,21.66
2018-06-21T12:26:37.578Z,21.70
2018-06-21T12:27:41.807Z,21.77
2018-06-21T12:28:46.031Z,21.84
2018-06-21T12:29:50.532Z,21.85
2018-06-21T12:30:54.784Z,21.81
2018-06-21T12:31:59.875Z,21.78
2018-06-21T12:33:04.099Z,21.73
2018-06-21T12:34:08.435Z,21.68
2018-06-21T12:35:12.822Z,21.65
2018-06-21T12:36:17.110Z,21.60
2018-06-21T12:37:21.390Z,21.57
2018-06-21T12:38:25.618Z,21.55
2018-06-21T12:39:29.757Z,21.52
2018-06-21T12:40:34.084Z,21.52
2018-06-21T12:41:38.346Z,21.54
2018-06-21T12:42:42.578Z,21.55
2018-06-21T12:43:46.830Z,21.55
2018-06-21T12:44:51.022Z,21.54
2018-06-21T12:45:55.281Z,21.51
2018-06-21T12:46:59.434Z,21.49
2018-06-21T12:48:03.677Z,21.46
2018-06-21T12:49:08.062Z,21.45
2018-06-21T12:50:12.599Z,21.37
2018-06-21T12:51:16.810Z,21.27
2018-06-21T12:52:21.089Z,21.19
2018-06-21T12:53:25.303Z,21.13
2018-06-21T12:54:29.607Z,21.10
2018-06-21T12:55:33.968Z,21.12
2018-06-21T12:56:38.399Z,21.16
2018-06-21T12:57:42.746Z,21.19
2018-06-21T12:58:47.255Z,21.24
2018-06-21T12:59:51.467Z,21.31
2018-06-21T13:00:55.843Z,21.37
2018-06-21T13:02:00.158Z,21.44
2018-06-21T13:03:04.421Z,21.47
2018-06-21T13:04:09.185Z,21.50
2018-06-21T13:05:13.343Z,21.50
2018-06-21T13:06:17.671Z,21.47
2018-06-21T13:07:21.919Z,21.40
2018-06-21T13:08:37.545Z,21.34
2018-06-21T13:09:52.969Z,21.25
2018-06-21T13:11:08.333Z,21.17
2018-06-21T13:12:26.763Z,21.10
2018-06-21T13:13:31.115Z,21.04
2018-06-21T13:14:35.307Z,21.02
2018-06-21T13:15:40.129Z,21.05
2018-06-21T13:16:44.759Z,21.09
2018-06-21T13:17:49.253Z,21.16
2018-06-21T13:18:53.729Z,21.20
2018-06-21T13:19:58.798Z,21.21
2018-06-21T13:21:03.252Z,21.23
2018-06-21T13:22:07.554Z,21.25
2018-06-21T13:23:12.183Z,21.23
2018-06-21T13:24:16.612Z,21.22
2018-06-21T13:25:21.019Z,21.21
2018-06-21T13:26:25.574Z,21.18
2018-06-21T13:27:29.788Z,21.10
2018-06-21T13:28:34.043Z,21.03
2018-06-21T13:29:39.268Z,21.02
2018-06-21T13:30:43.574Z,21.02
2018-06-21T13:31:47.787Z,21.07
2018-06-21T13:32:52.078Z,21.16
2018-06-21T13:33:56.272Z,21.26
2018-06-21T13:35:00.515Z,21.35
2018-06-21T13:36:04.813Z,21.41
2018-06-21T13:37:09.536Z,21.46
2018-06-21T13:38:13.734Z,21.50
2018-06-21T13:39:18.200Z,21.56
2018-06-21T13:40:22.423Z,21.59
2018-06-21T13:41:26.753Z,21.61
2018-06-21T13:42:31.097Z,21.59
2018-06-21T13:43:35.336Z,21.54
2018-06-21T13:44:39.559Z,21.49
2018-06-21T13:45:43.921Z,21.47
2018-06-21T13:46:48.207Z,21.46
2018-06-21T13:47:52.731Z,21.40
2018-06-21T13:48:56.967Z,21.36
2018-06-21T13:50:01.108Z,21.35
2018-06-21T13:51:05.763Z,21.38
2018-06-21T13:52:10.058Z,21.35